sensor_id;sensor_type;location;lat;lon;timestamp;P1;durP1;ratioP1;P2;durP2;ratioP2
1308;SDS011;647;48.840;9.314;2023-01-19T00:00:53;79.40;;;17.60;;
1308;SDS011;647;48.840;9.314;2023-01-19T00:03:20;81.65;;;19.60;;
1308;SDS011;647;48.840;9.314;2023-01-19T00:05:47;78.40;;;17.65;;
1308;SDS011;647;48.840;9.314;2023-01-19T00:08:15;83.20;;;18.27;;
1308;SDS011;647;48.840;9.314;2023-01-19T00:10:43;95.75;;;25.85;;
1308;SDS011;647;48.840;9.314;2023-01-19T00:13:11;89.68;;;24.35;;
1308;SDS011;647;48.840;9.314;2023-01-19T00:15:39;82.85;;;21.40;;
1308;SDS011;647;48.840;9.314;2023-01-19T00:18:07;96.30;;;23.65;;
1308;SDS011;647;48.840;9.314;2023-01-19T00:20:34;79.70;;;19.63;;
1308;SDS011;647;48.840;9.314;2023-01-19T00:23:01;81.57;;;18.70;;
1308;SDS011;647;48.840;9.314;2023-01-19T00:25:29;85.05;;;21.10;;
1308;SDS011;647;48.840;9.314;2023-01-19T00:27:56;87.35;;;21.35;;
1308;SDS011;647;48.840;9.314;2023-01-19T00:30:23;91.07;;;21.67;;
1308;SDS011;647;48.840;9.314;2023-01-19T00:32:52;80.72;;;20.63;;
1308;SDS011;647;48.840;9.314;2023-01-19T00:35:19;86.18;;;21.50;;
1308;SDS011;647;48.840;9.314;2023-01-19T00:37:46;82.70;;;21.10;;
1308;SDS011;647;48.840;9.314;2023-01-19T00:40:13;84.68;;;19.45;;
1308;SDS011;647;48.840;9.314;2023-01-19T00:42:40;86.03;;;21.50;;
1308;SDS011;647;48.840;9.314;2023-01-19T00:45:09;88.45;;;22.15;;
1308;SDS011;647;48.840;9.314;2023-01-19T00:47:36;89.68;;;22.00;;
1308;SDS011;647;48.840;9.314;2023-01-19T00:50:06;86.15;;;22.75;;
1308;SDS011;647;48.840;9.314;2023-01-19T00:52:35;84.15;;;20.15;;
1308;SDS011;647;48.840;9.314;2023-01-19T00:55:03;87.15;;;23.05;;
1308;SDS011;647;48.840;9.314;2023-01-19T00:57:30;88.32;;;21.92;;
1308;SDS011;647;48.840;9.314;2023-01-19T00:59:57;89.97;;;20.05;;
1308;SDS011;647;48.840;9.314;2023-01-19T01:02:24;87.82;;;22.02;;
1308;SDS011;647;48.840;9.314;2023-01-19T01:04:51;86.50;;;21.83;;
1308;SDS011;647;48.840;9.314;2023-01-19T01:07:22;81.60;;;19.63;;
1308;SDS011;647;48.840;9.314;2023-01-19T01:09:49;86.25;;;20.33;;
1308;SDS011;647;48.840;9.314;2023-01-19T01:12:16;82.43;;;18.98;;
1308;SDS011;647;48.840;9.314;2023-01-19T01:14:43;82.25;;;18.70;;
1308;SDS011;647;48.840;9.314;2023-01-19T01:17:10;76.90;;;17.15;;
1308;SDS011;647;48.840;9.314;2023-01-19T01:19:38;84.53;;;18.75;;
1308;SDS011;647;48.840;9.314;2023-01-19T01:22:05;76.82;;;17.58;;
1308;SDS011;647;48.840;9.314;2023-01-19T01:24:34;89.60;;;22.83;;
1308;SDS011;647;48.840;9.314;2023-01-19T01:27:02;85.85;;;21.02;;
1308;SDS011;647;48.840;9.314;2023-01-19T01:29:29;83.78;;;19.52;;
1308;SDS011;647;48.840;9.314;2023-01-19T01:31:59;83.40;;;19.05;;
1308;SDS011;647;48.840;9.314;2023-01-19T01:34:26;91.22;;;24.38;;
1308;SDS011;647;48.840;9.314;2023-01-19T01:36:53;93.53;;;23.48;;
1308;SDS011;647;48.840;9.314;2023-01-19T01:39:20;84.03;;;18.83;;
1308;SDS011;647;48.840;9.314;2023-01-19T01:41:49;82.38;;;18.45;;
1308;SDS011;647;48.840;9.314;2023-01-19T01:47:01;83.95;;;15.57;;
1308;SDS011;647;48.840;9.314;2023-01-19T01:49:28;75.68;;;15.98;;
1308;SDS011;647;48.840;9.314;2023-01-19T01:51:56;78.35;;;15.90;;
1308;SDS011;647;48.840;9.314;2023-01-19T01:54:24;80.70;;;18.05;;
1308;SDS011;647;48.840;9.314;2023-01-19T01:56:54;78.65;;;19.58;;
1308;SDS011;647;48.840;9.314;2023-01-19T01:59:23;72.80;;;16.00;;
1308;SDS011;647;48.840;9.314;2023-01-19T02:01:54;75.13;;;16.80;;
1308;SDS011;647;48.840;9.314;2023-01-19T02:04:42;79.43;;;16.15;;
1308;SDS011;647;48.840;9.314;2023-01-19T02:07:10;76.95;;;17.02;;
1308;SDS011;647;48.840;9.314;2023-01-19T02:09:55;81.22;;;18.73;;
1308;SDS011;647;48.840;9.314;2023-01-19T02:12:42;78.95;;;18.17;;
1308;SDS011;647;48.840;9.314;2023-01-19T02:15:26;81.57;;;18.95;;
1308;SDS011;647;48.840;9.314;2023-01-19T02:17:53;81.93;;;19.55;;
1308;SDS011;647;48.840;9.314;2023-01-19T02:20:22;80.03;;;17.02;;
1308;SDS011;647;48.840;9.314;2023-01-19T02:22:51;83.10;;;19.52;;
1308;SDS011;647;48.840;9.314;2023-01-19T02:25:19;83.50;;;18.50;;
1308;SDS011;647;48.840;9.314;2023-01-19T02:27:47;81.68;;;17.75;;
1308;SDS011;647;48.840;9.314;2023-01-19T02:30:15;85.95;;;18.35;;
1308;SDS011;647;48.840;9.314;2023-01-19T02:32:42;78.72;;;16.45;;
1308;SDS011;647;48.840;9.314;2023-01-19T02:35:09;81.05;;;17.40;;
1308;SDS011;647;48.840;9.314;2023-01-19T02:37:36;77.78;;;16.42;;
1308;SDS011;647;48.840;9.314;2023-01-19T02:40:06;76.00;;;15.85;;
1308;SDS011;647;48.840;9.314;2023-01-19T02:42:36;75.45;;;17.05;;
1308;SDS011;647;48.840;9.314;2023-01-19T02:45:05;74.25;;;16.33;;
1308;SDS011;647;48.840;9.314;2023-01-19T02:47:37;77.80;;;16.05;;
1308;SDS011;647;48.840;9.314;2023-01-19T02:50:05;83.43;;;16.70;;
1308;SDS011;647;48.840;9.314;2023-01-19T02:52:52;76.28;;;15.20;;
1308;SDS011;647;48.840;9.314;2023-01-19T02:55:20;79.25;;;16.00;;
1308;SDS011;647;48.840;9.314;2023-01-19T02:57:54;74.47;;;16.02;;
1308;SDS011;647;48.840;9.314;2023-01-19T03:00:26;76.20;;;15.82;;
1308;SDS011;647;48.840;9.314;2023-01-19T03:03:00;75.95;;;15.20;;
1308;SDS011;647;48.840;9.314;2023-01-19T03:05:37;75.85;;;15.95;;
1308;SDS011;647;48.840;9.314;2023-01-19T03:08:10;77.47;;;15.63;;
1308;SDS011;647;48.840;9.314;2023-01-19T03:10:42;83.97;;;16.48;;
1308;SDS011;647;48.840;9.314;2023-01-19T03:13:13;76.10;;;16.77;;
1308;SDS011;647;48.840;9.314;2023-01-19T03:15:43;76.82;;;15.55;;
1308;SDS011;647;48.840;9.314;2023-01-19T03:18:11;77.20;;;14.98;;
1308;SDS011;647;48.840;9.314;2023-01-19T03:20:40;75.78;;;15.68;;
1308;SDS011;647;48.840;9.314;2023-01-19T03:23:09;78.82;;;15.90;;
1308;SDS011;647;48.840;9.314;2023-01-19T03:25:37;76.57;;;16.17;;
1308;SDS011;647;48.840;9.314;2023-01-19T03:28:05;74.40;;;16.42;;
1308;SDS011;647;48.840;9.314;2023-01-19T03:30:34;76.43;;;17.35;;
1308;SDS011;647;48.840;9.314;2023-01-19T03:33:03;74.30;;;15.23;;
1308;SDS011;647;48.840;9.314;2023-01-19T03:35:34;78.18;;;15.32;;
1308;SDS011;647;48.840;9.314;2023-01-19T03:38:02;72.88;;;15.13;;
1308;SDS011;647;48.840;9.314;2023-01-19T03:40:32;74.50;;;15.15;;
1308;SDS011;647;48.840;9.314;2023-01-19T03:43:00;75.75;;;14.65;;
1308;SDS011;647;48.840;9.314;2023-01-19T03:45:28;78.38;;;15.80;;
1308;SDS011;647;48.840;9.314;2023-01-19T03:47:58;75.30;;;15.15;;
1308;SDS011;647;48.840;9.314;2023-01-19T03:50:26;85.15;;;15.85;;
1308;SDS011;647;48.840;9.314;2023-01-19T03:53:01;78.97;;;15.70;;
1308;SDS011;647;48.840;9.314;2023-01-19T03:55:30;74.28;;;15.68;;
1308;SDS011;647;48.840;9.314;2023-01-19T03:57:58;74.45;;;15.48;;
1308;SDS011;647;48.840;9.314;2023-01-19T04:00:25;76.47;;;17.10;;
1308;SDS011;647;48.840;9.314;2023-01-19T04:02:53;83.82;;;16.38;;
1308;SDS011;647;48.840;9.314;2023-01-19T04:05:21;74.68;;;15.02;;
1308;SDS011;647;48.840;9.314;2023-01-19T04:07:49;77.30;;;15.77;;
1308;SDS011;647;48.840;9.314;2023-01-19T04:10:16;77.85;;;15.05;;
1308;SDS011;647;48.840;9.314;2023-01-19T04:12:43;73.10;;;14.70;;
1308;SDS011;647;48.840;9.314;2023-01-19T04:15:10;76.50;;;16.95;;
1308;SDS011;647;48.840;9.314;2023-01-19T04:17:38;75.78;;;15.50;;
1308;SDS011;647;48.840;9.314;2023-01-19T04:20:06;75.60;;;15.88;;
1308;SDS011;647;48.840;9.314;2023-01-19T04:22:35;77.38;;;16.25;;
1308;SDS011;647;48.840;9.314;2023-01-19T04:25:03;76.80;;;14.85;;
1308;SDS011;647;48.840;9.314;2023-01-19T04:27:30;76.70;;;16.00;;
1308;SDS011;647;48.840;9.314;2023-01-19T04:29:57;74.68;;;15.20;;
1308;SDS011;647;48.840;9.314;2023-01-19T04:32:25;72.38;;;14.85;;
1308;SDS011;647;48.840;9.314;2023-01-19T04:34:52;77.20;;;16.77;;
1308;SDS011;647;48.840;9.314;2023-01-19T04:37:19;75.75;;;16.58;;
1308;SDS011;647;48.840;9.314;2023-01-19T04:39:47;75.15;;;15.30;;
1308;SDS011;647;48.840;9.314;2023-01-19T04:42:14;74.60;;;15.18;;
1308;SDS011;647;48.840;9.314;2023-01-19T04:44:42;72.28;;;13.73;;
1308;SDS011;647;48.840;9.314;2023-01-19T04:47:09;75.15;;;14.93;;
1308;SDS011;647;48.840;9.314;2023-01-19T04:49:36;76.85;;;14.50;;
1308;SDS011;647;48.840;9.314;2023-01-19T04:52:03;77.13;;;16.60;;
1308;SDS011;647;48.840;9.314;2023-01-19T04:54:30;75.78;;;15.13;;
1308;SDS011;647;48.840;9.314;2023-01-19T04:56:59;73.25;;;16.15;;
1308;SDS011;647;48.840;9.314;2023-01-19T04:59:26;80.72;;;15.02;;
1308;SDS011;647;48.840;9.314;2023-01-19T05:01:53;76.38;;;15.35;;
1308;SDS011;647;48.840;9.314;2023-01-19T05:04:21;82.70;;;17.00;;
1308;SDS011;647;48.840;9.314;2023-01-19T05:06:49;78.22;;;16.35;;
1308;SDS011;647;48.840;9.314;2023-01-19T05:09:18;75.35;;;16.67;;
1308;SDS011;647;48.840;9.314;2023-01-19T05:11:45;75.72;;;14.50;;
1308;SDS011;647;48.840;9.314;2023-01-19T05:14:13;74.18;;;15.60;;
1308;SDS011;647;48.840;9.314;2023-01-19T05:16:40;77.65;;;15.43;;
1308;SDS011;647;48.840;9.314;2023-01-19T05:19:07;74.22;;;14.93;;
1308;SDS011;647;48.840;9.314;2023-01-19T05:21:35;74.47;;;15.00;;
1308;SDS011;647;48.840;9.314;2023-01-19T05:24:02;77.53;;;15.20;;
1308;SDS011;647;48.840;9.314;2023-01-19T05:26:29;75.25;;;15.40;;
1308;SDS011;647;48.840;9.314;2023-01-19T05:28:56;82.95;;;16.88;;
1308;SDS011;647;48.840;9.314;2023-01-19T05:31:24;76.70;;;14.70;;
1308;SDS011;647;48.840;9.314;2023-01-19T05:33:52;77.07;;;16.27;;
1308;SDS011;647;48.840;9.314;2023-01-19T05:36:19;83.60;;;15.10;;
1308;SDS011;647;48.840;9.314;2023-01-19T05:38:46;78.82;;;16.73;;
1308;SDS011;647;48.840;9.314;2023-01-19T05:41:13;78.38;;;15.55;;
1308;SDS011;647;48.840;9.314;2023-01-19T05:43:41;75.88;;;15.38;;
1308;SDS011;647;48.840;9.314;2023-01-19T05:46:08;95.60;;;26.20;;
1308;SDS011;647;48.840;9.314;2023-01-19T05:48:37;107.80;;;33.83;;
1308;SDS011;647;48.840;9.314;2023-01-19T05:51:04;94.35;;;22.80;;
1308;SDS011;647;48.840;9.314;2023-01-19T05:53:31;82.97;;;19.50;;
1308;SDS011;647;48.840;9.314;2023-01-19T05:55:59;84.32;;;19.38;;
1308;SDS011;647;48.840;9.314;2023-01-19T05:58:26;78.40;;;18.05;;
1308;SDS011;647;48.840;9.314;2023-01-19T06:00:53;77.57;;;16.52;;
1308;SDS011;647;48.840;9.314;2023-01-19T06:03:20;76.60;;;16.05;;
1308;SDS011;647;48.840;9.314;2023-01-19T06:05:49;76.68;;;17.85;;
1308;SDS011;647;48.840;9.314;2023-01-19T06:08:16;78.15;;;16.38;;
1308;SDS011;647;48.840;9.314;2023-01-19T06:10:43;73.25;;;15.38;;
1308;SDS011;647;48.840;9.314;2023-01-19T06:13:10;80.97;;;17.30;;
1308;SDS011;647;48.840;9.314;2023-01-19T06:15:37;80.20;;;15.68;;
1308;SDS011;647;48.840;9.314;2023-01-19T06:18:04;81.03;;;16.40;;
1308;SDS011;647;48.840;9.314;2023-01-19T06:20:31;79.63;;;17.35;;
1308;SDS011;647;48.840;9.314;2023-01-19T06:23:00;82.68;;;18.02;;
1308;SDS011;647;48.840;9.314;2023-01-19T06:25:27;80.82;;;16.90;;
1308;SDS011;647;48.840;9.314;2023-01-19T06:27:54;73.85;;;15.18;;
1308;SDS011;647;48.840;9.314;2023-01-19T06:30:21;78.75;;;16.85;;
1308;SDS011;647;48.840;9.314;2023-01-19T06:32:49;75.30;;;15.88;;
1308;SDS011;647;48.840;9.314;2023-01-19T06:35:17;78.80;;;16.48;;
1308;SDS011;647;48.840;9.314;2023-01-19T06:37:44;77.30;;;17.42;;
1308;SDS011;647;48.840;9.314;2023-01-19T06:40:12;74.63;;;15.27;;
1308;SDS011;647;48.840;9.314;2023-01-19T06:42:39;75.20;;;15.73;;
1308;SDS011;647;48.840;9.314;2023-01-19T06:45:07;75.50;;;15.45;;
1308;SDS011;647;48.840;9.314;2023-01-19T06:47:34;78.32;;;16.48;;
1308;SDS011;647;48.840;9.314;2023-01-19T06:50:02;78.20;;;15.63;;
1308;SDS011;647;48.840;9.314;2023-01-19T06:52:29;76.25;;;16.73;;
1308;SDS011;647;48.840;9.314;2023-01-19T06:54:56;76.65;;;17.10;;
1308;SDS011;647;48.840;9.314;2023-01-19T06:57:25;79.13;;;16.83;;
1308;SDS011;647;48.840;9.314;2023-01-19T06:59:52;75.28;;;15.38;;
1308;SDS011;647;48.840;9.314;2023-01-19T07:02:19;74.10;;;14.93;;
1308;SDS011;647;48.840;9.314;2023-01-19T07:04:47;80.22;;;16.52;;
1308;SDS011;647;48.840;9.314;2023-01-19T07:07:15;76.75;;;15.45;;
1308;SDS011;647;48.840;9.314;2023-01-19T07:09:42;79.78;;;15.95;;
1308;SDS011;647;48.840;9.314;2023-01-19T07:12:09;76.20;;;17.55;;
1308;SDS011;647;48.840;9.314;2023-01-19T07:14:37;76.28;;;17.55;;
1308;SDS011;647;48.840;9.314;2023-01-19T07:17:05;83.70;;;18.45;;
1308;SDS011;647;48.840;9.314;2023-01-19T07:19:32;91.72;;;29.88;;
1308;SDS011;647;48.840;9.314;2023-01-19T07:22:00;84.90;;;22.58;;
1308;SDS011;647;48.840;9.314;2023-01-19T07:24:27;80.43;;;20.75;;
1308;SDS011;647;48.840;9.314;2023-01-19T07:26:55;83.60;;;20.40;;
1308;SDS011;647;48.840;9.314;2023-01-19T07:29:22;82.45;;;21.13;;
1308;SDS011;647;48.840;9.314;2023-01-19T07:31:51;82.18;;;20.00;;
1308;SDS011;647;48.840;9.314;2023-01-19T07:34:18;79.22;;;19.15;;
1308;SDS011;647;48.840;9.314;2023-01-19T07:36:46;88.65;;;21.33;;
1308;SDS011;647;48.840;9.314;2023-01-19T07:39:13;82.78;;;20.10;;
1308;SDS011;647;48.840;9.314;2023-01-19T07:41:40;79.18;;;19.17;;
1308;SDS011;647;48.840;9.314;2023-01-19T07:44:07;83.70;;;20.50;;
1308;SDS011;647;48.840;9.314;2023-01-19T07:46:35;77.75;;;17.45;;
1308;SDS011;647;48.840;9.314;2023-01-19T07:49:03;76.03;;;17.20;;
1308;SDS011;647;48.840;9.314;2023-01-19T07:51:30;82.40;;;19.98;;
1308;SDS011;647;48.840;9.314;2023-01-19T07:53:57;78.30;;;18.70;;
1308;SDS011;647;48.840;9.314;2023-01-19T07:56:25;81.28;;;18.08;;
1308;SDS011;647;48.840;9.314;2023-01-19T07:58:54;81.65;;;19.20;;
1308;SDS011;647;48.840;9.314;2023-01-19T08:01:21;78.47;;;17.60;;
1308;SDS011;647;48.840;9.314;2023-01-19T08:03:49;77.10;;;17.75;;
1308;SDS011;647;48.840;9.314;2023-01-19T08:06:18;76.97;;;17.58;;
1308;SDS011;647;48.840;9.314;2023-01-19T08:08:45;78.57;;;16.98;;
1308;SDS011;647;48.840;9.314;2023-01-19T08:11:13;86.82;;;19.52;;
1308;SDS011;647;48.840;9.314;2023-01-19T08:13:40;82.38;;;19.13;;
1308;SDS011;647;48.840;9.314;2023-01-19T08:16:07;79.22;;;19.30;;
1308;SDS011;647;48.840;9.314;2023-01-19T08:18:34;80.45;;;18.67;;
1308;SDS011;647;48.840;9.314;2023-01-19T08:21:01;80.00;;;18.60;;
1308;SDS011;647;48.840;9.314;2023-01-19T08:23:30;79.85;;;18.58;;
1308;SDS011;647;48.840;9.314;2023-01-19T08:25:57;77.28;;;17.77;;
1308;SDS011;647;48.840;9.314;2023-01-19T08:28:24;81.80;;;18.50;;
1308;SDS011;647;48.840;9.314;2023-01-19T08:30:51;80.28;;;18.60;;
1308;SDS011;647;48.840;9.314;2023-01-19T08:33:19;79.30;;;17.45;;
1308;SDS011;647;48.840;9.314;2023-01-19T08:35:47;79.75;;;17.27;;
1308;SDS011;647;48.840;9.314;2023-01-19T08:38:15;84.10;;;16.13;;
1308;SDS011;647;48.840;9.314;2023-01-19T08:40:43;82.10;;;20.02;;
1308;SDS011;647;48.840;9.314;2023-01-19T08:43:11;77.50;;;18.15;;
1308;SDS011;647;48.840;9.314;2023-01-19T08:45:39;76.60;;;17.52;;
1308;SDS011;647;48.840;9.314;2023-01-19T08:48:12;79.68;;;16.15;;
1308;SDS011;647;48.840;9.314;2023-01-19T08:50:40;77.18;;;14.15;;
1308;SDS011;647;48.840;9.314;2023-01-19T08:53:07;70.78;;;12.70;;
1308;SDS011;647;48.840;9.314;2023-01-19T08:55:34;70.53;;;12.82;;
1308;SDS011;647;48.840;9.314;2023-01-19T08:58:03;72.30;;;14.07;;
1308;SDS011;647;48.840;9.314;2023-01-19T09:00:32;98.10;;;14.13;;
1308;SDS011;647;48.840;9.314;2023-01-19T09:03:02;75.50;;;13.90;;
1308;SDS011;647;48.840;9.314;2023-01-19T09:05:29;74.50;;;12.88;;
1308;SDS011;647;48.840;9.314;2023-01-19T09:07:59;71.15;;;12.98;;
1308;SDS011;647;48.840;9.314;2023-01-19T09:10:27;68.88;;;12.02;;
1308;SDS011;647;48.840;9.314;2023-01-19T09:12:55;68.43;;;11.23;;
1308;SDS011;647;48.840;9.314;2023-01-19T09:15:24;67.55;;;11.20;;
1308;SDS011;647;48.840;9.314;2023-01-19T09:17:51;74.38;;;14.27;;
1308;SDS011;647;48.840;9.314;2023-01-19T09:20:18;66.72;;;9.98;;
1308;SDS011;647;48.840;9.314;2023-01-19T09:22:45;68.32;;;10.35;;
1308;SDS011;647;48.840;9.314;2023-01-19T09:25:12;68.20;;;9.88;;
1308;SDS011;647;48.840;9.314;2023-01-19T09:27:39;71.45;;;8.38;;
1308;SDS011;647;48.840;9.314;2023-01-19T09:30:07;68.68;;;9.50;;
1308;SDS011;647;48.840;9.314;2023-01-19T09:32:36;66.60;;;8.88;;
1308;SDS011;647;48.840;9.314;2023-01-19T09:35:04;66.43;;;9.82;;
1308;SDS011;647;48.840;9.314;2023-01-19T09:37:31;66.10;;;8.85;;
1308;SDS011;647;48.840;9.314;2023-01-19T09:39:58;64.50;;;8.32;;
1308;SDS011;647;48.840;9.314;2023-01-19T09:42:26;74.18;;;10.32;;
1308;SDS011;647;48.840;9.314;2023-01-19T09:44:55;71.22;;;12.23;;
1308;SDS011;647;48.840;9.314;2023-01-19T09:47:24;65.22;;;10.07;;
1308;SDS011;647;48.840;9.314;2023-01-19T09:49:54;69.00;;;9.20;;
1308;SDS011;647;48.840;9.314;2023-01-19T09:52:23;66.88;;;8.32;;
1308;SDS011;647;48.840;9.314;2023-01-19T09:54:51;65.22;;;8.73;;
1308;SDS011;647;48.840;9.314;2023-01-19T09:57:19;67.07;;;11.02;;
1308;SDS011;647;48.840;9.314;2023-01-19T09:59:47;71.20;;;10.32;;
1308;SDS011;647;48.840;9.314;2023-01-19T10:02:21;66.30;;;10.07;;
1308;SDS011;647;48.840;9.314;2023-01-19T10:04:54;66.35;;;9.50;;
1308;SDS011;647;48.840;9.314;2023-01-19T10:07:28;67.53;;;9.27;;
1308;SDS011;647;48.840;9.314;2023-01-19T10:10:03;67.40;;;8.70;;
1308;SDS011;647;48.840;9.314;2023-01-19T10:12:36;65.70;;;9.15;;
1308;SDS011;647;48.840;9.314;2023-01-19T10:15:09;67.38;;;10.05;;
1308;SDS011;647;48.840;9.314;2023-01-19T10:17:40;66.75;;;10.05;;
1308;SDS011;647;48.840;9.314;2023-01-19T10:20:10;72.40;;;11.77;;
1308;SDS011;647;48.840;9.314;2023-01-19T10:22:40;68.55;;;11.98;;
1308;SDS011;647;48.840;9.314;2023-01-19T10:25:09;73.20;;;12.93;;
1308;SDS011;647;48.840;9.314;2023-01-19T10:27:39;75.00;;;14.57;;
1308;SDS011;647;48.840;9.314;2023-01-19T10:30:07;67.00;;;8.77;;
1308;SDS011;647;48.840;9.314;2023-01-19T10:32:35;71.43;;;10.27;;
1308;SDS011;647;48.840;9.314;2023-01-19T10:35:05;103.25;;;24.63;;
1308;SDS011;647;48.840;9.314;2023-01-19T10:37:39;109.85;;;31.38;;
1308;SDS011;647;48.840;9.314;2023-01-19T10:40:13;88.82;;;18.30;;
1308;SDS011;647;48.840;9.314;2023-01-19T10:42:44;69.75;;;10.95;;
1308;SDS011;647;48.840;9.314;2023-01-19T10:45:13;91.63;;;24.73;;
1308;SDS011;647;48.840;9.314;2023-01-19T10:47:41;68.32;;;11.57;;
1308;SDS011;647;48.840;9.314;2023-01-19T10:50:20;80.90;;;17.88;;
1308;SDS011;647;48.840;9.314;2023-01-19T10:52:49;69.47;;;11.30;;
1308;SDS011;647;48.840;9.314;2023-01-19T10:55:24;64.25;;;8.75;;
1308;SDS011;647;48.840;9.314;2023-01-19T10:57:52;64.40;;;7.82;;
1308;SDS011;647;48.840;9.314;2023-01-19T11:00:30;63.63;;;8.30;;
1308;SDS011;647;48.840;9.314;2023-01-19T11:02:57;62.80;;;7.43;;
1308;SDS011;647;48.840;9.314;2023-01-19T11:05:25;63.70;;;7.57;;
1308;SDS011;647;48.840;9.314;2023-01-19T11:07:54;68.10;;;7.88;;
1308;SDS011;647;48.840;9.314;2023-01-19T11:10:22;63.63;;;8.00;;
1308;SDS011;647;48.840;9.314;2023-01-19T11:12:56;68.88;;;8.43;;
1308;SDS011;647;48.840;9.314;2023-01-19T11:15:27;64.13;;;8.55;;
1308;SDS011;647;48.840;9.314;2023-01-19T11:17:55;63.45;;;7.35;;
1308;SDS011;647;48.840;9.314;2023-01-19T11:20:23;62.10;;;7.50;;
1308;SDS011;647;48.840;9.314;2023-01-19T11:23:04;62.22;;;7.32;;
1308;SDS011;647;48.840;9.314;2023-01-19T11:25:31;64.88;;;8.95;;
1308;SDS011;647;48.840;9.314;2023-01-19T11:27:59;63.30;;;7.43;;
1308;SDS011;647;48.840;9.314;2023-01-19T11:30:26;62.92;;;7.63;;
1308;SDS011;647;48.840;9.314;2023-01-19T11:32:53;64.85;;;7.60;;
1308;SDS011;647;48.840;9.314;2023-01-19T11:35:31;65.07;;;8.40;;
1308;SDS011;647;48.840;9.314;2023-01-19T11:38:10;64.70;;;7.72;;
1308;SDS011;647;48.840;9.314;2023-01-19T11:40:39;63.58;;;7.82;;
1308;SDS011;647;48.840;9.314;2023-01-19T11:43:08;62.72;;;7.75;;
1308;SDS011;647;48.840;9.314;2023-01-19T11:45:36;64.45;;;6.85;;
1308;SDS011;647;48.840;9.314;2023-01-19T11:48:05;62.58;;;7.72;;
1308;SDS011;647;48.840;9.314;2023-01-19T11:50:33;65.68;;;7.57;;
1308;SDS011;647;48.840;9.314;2023-01-19T11:53:03;63.85;;;7.25;;
1308;SDS011;647;48.840;9.314;2023-01-19T11:55:35;66.45;;;7.82;;
1308;SDS011;647;48.840;9.314;2023-01-19T11:58:03;65.25;;;8.70;;
1308;SDS011;647;48.840;9.314;2023-01-19T12:00:32;67.82;;;7.55;;
1308;SDS011;647;48.840;9.314;2023-01-19T12:03:01;60.80;;;6.38;;
1308;SDS011;647;48.840;9.314;2023-01-19T12:05:33;63.55;;;7.45;;
1308;SDS011;647;48.840;9.314;2023-01-19T12:08:05;65.03;;;7.65;;
1308;SDS011;647;48.840;9.314;2023-01-19T12:10:34;61.92;;;7.00;;
1308;SDS011;647;48.840;9.314;2023-01-19T12:13:01;64.13;;;7.10;;
1308;SDS011;647;48.840;9.314;2023-01-19T12:15:29;61.55;;;6.72;;
1308;SDS011;647;48.840;9.314;2023-01-19T12:17:59;64.68;;;6.75;;
1308;SDS011;647;48.840;9.314;2023-01-19T12:20:27;63.05;;;7.72;;
1308;SDS011;647;48.840;9.314;2023-01-19T12:22:58;67.53;;;7.70;;
1308;SDS011;647;48.840;9.314;2023-01-19T12:25:30;64.30;;;7.65;;
1308;SDS011;647;48.840;9.314;2023-01-19T12:28:00;62.67;;;7.00;;
1308;SDS011;647;48.840;9.314;2023-01-19T12:30:28;64.43;;;8.27;;
1308;SDS011;647;48.840;9.314;2023-01-19T12:35:54;66.35;;;8.57;;
1308;SDS011;647;48.840;9.314;2023-01-19T12:38:22;62.30;;;7.88;;
1308;SDS011;647;48.840;9.314;2023-01-19T12:40:50;65.18;;;7.68;;
1308;SDS011;647;48.840;9.314;2023-01-19T12:43:32;63.78;;;8.15;;
1308;SDS011;647;48.840;9.314;2023-01-19T12:45:59;68.63;;;8.02;;
1308;SDS011;647;48.840;9.314;2023-01-19T12:48:27;64.38;;;8.82;;
1308;SDS011;647;48.840;9.314;2023-01-19T12:50:57;64.78;;;7.25;;
1308;SDS011;647;48.840;9.314;2023-01-19T12:53:24;64.50;;;7.88;;
1308;SDS011;647;48.840;9.314;2023-01-19T12:55:58;63.53;;;7.32;;
1308;SDS011;647;48.840;9.314;2023-01-19T12:58:27;63.50;;;8.52;;
1308;SDS011;647;48.840;9.314;2023-01-19T13:03:45;64.70;;;8.30;;
1308;SDS011;647;48.840;9.314;2023-01-19T13:09:23;65.72;;;7.97;;
1308;SDS011;647;48.840;9.314;2023-01-19T13:14:39;68.22;;;9.18;;
1308;SDS011;647;48.840;9.314;2023-01-19T13:19:58;62.72;;;8.45;;
1308;SDS011;647;48.840;9.314;2023-01-19T13:25:13;65.47;;;8.85;;
1308;SDS011;647;48.840;9.314;2023-01-19T13:27:47;64.57;;;8.93;;
1308;SDS011;647;48.840;9.314;2023-01-19T13:30:14;63.50;;;9.30;;
1308;SDS011;647;48.840;9.314;2023-01-19T13:32:43;65.45;;;8.35;;
1308;SDS011;647;48.840;9.314;2023-01-19T13:35:13;66.97;;;8.52;;
1308;SDS011;647;48.840;9.314;2023-01-19T13:37:42;65.57;;;9.40;;
1308;SDS011;647;48.840;9.314;2023-01-19T13:40:14;65.78;;;9.25;;
1308;SDS011;647;48.840;9.314;2023-01-19T13:42:42;63.50;;;8.65;;
1308;SDS011;647;48.840;9.314;2023-01-19T13:45:14;69.13;;;9.90;;
1308;SDS011;647;48.840;9.314;2023-01-19T13:47:43;64.95;;;9.60;;
1308;SDS011;647;48.840;9.314;2023-01-19T13:50:18;68.45;;;10.00;;
1308;SDS011;647;48.840;9.314;2023-01-19T13:52:46;65.00;;;9.35;;
1308;SDS011;647;48.840;9.314;2023-01-19T13:55:15;64.13;;;9.18;;
1308;SDS011;647;48.840;9.314;2023-01-19T13:57:44;69.00;;;9.13;;
1308;SDS011;647;48.840;9.314;2023-01-19T14:00:16;63.97;;;9.32;;
1308;SDS011;647;48.840;9.314;2023-01-19T14:02:54;64.25;;;9.20;;
1308;SDS011;647;48.840;9.314;2023-01-19T14:05:24;63.75;;;8.35;;
1308;SDS011;647;48.840;9.314;2023-01-19T14:07:59;64.78;;;8.90;;
1308;SDS011;647;48.840;9.314;2023-01-19T14:10:26;64.65;;;8.95;;
1308;SDS011;647;48.840;9.314;2023-01-19T14:12:58;64.72;;;8.90;;
1308;SDS011;647;48.840;9.314;2023-01-19T14:15:25;64.55;;;10.15;;
1308;SDS011;647;48.840;9.314;2023-01-19T14:18:09;67.70;;;9.85;;
1308;SDS011;647;48.840;9.314;2023-01-19T14:20:38;67.65;;;10.18;;
1308;SDS011;647;48.840;9.314;2023-01-19T14:23:05;66.22;;;10.02;;
1308;SDS011;647;48.840;9.314;2023-01-19T14:25:33;65.75;;;10.02;;
1308;SDS011;647;48.840;9.314;2023-01-19T14:30:52;65.05;;;10.23;;
1308;SDS011;647;48.840;9.314;2023-01-19T14:33:32;65.68;;;9.45;;
1308;SDS011;647;48.840;9.314;2023-01-19T14:36:08;67.43;;;10.57;;
1308;SDS011;647;48.840;9.314;2023-01-19T14:38:35;68.70;;;12.20;;
1308;SDS011;647;48.840;9.314;2023-01-19T14:41:03;71.97;;;11.38;;
1308;SDS011;647;48.840;9.314;2023-01-19T14:43:30;70.43;;;13.38;;
1308;SDS011;647;48.840;9.314;2023-01-19T14:45:57;69.53;;;13.50;;
1308;SDS011;647;48.840;9.314;2023-01-19T14:48:24;69.22;;;10.60;;
1308;SDS011;647;48.840;9.314;2023-01-19T14:50:58;77.18;;;16.50;;
1308;SDS011;647;48.840;9.314;2023-01-19T14:53:27;73.47;;;13.63;;
1308;SDS011;647;48.840;9.314;2023-01-19T14:55:55;75.68;;;14.60;;
1308;SDS011;647;48.840;9.314;2023-01-19T14:58:25;78.80;;;17.27;;
1308;SDS011;647;48.840;9.314;2023-01-19T15:00:52;72.43;;;14.38;;
1308;SDS011;647;48.840;9.314;2023-01-19T15:03:19;68.80;;;12.45;;
1308;SDS011;647;48.840;9.314;2023-01-19T15:05:47;68.68;;;12.57;;
1308;SDS011;647;48.840;9.314;2023-01-19T15:08:15;69.43;;;12.57;;
1308;SDS011;647;48.840;9.314;2023-01-19T15:10:45;66.93;;;11.65;;
1308;SDS011;647;48.840;9.314;2023-01-19T15:13:13;70.60;;;12.80;;
1308;SDS011;647;48.840;9.314;2023-01-19T15:15:42;68.10;;;12.82;;
1308;SDS011;647;48.840;9.314;2023-01-19T15:18:10;77.38;;;11.02;;
1308;SDS011;647;48.840;9.314;2023-01-19T15:20:39;71.95;;;11.75;;
1308;SDS011;647;48.840;9.314;2023-01-19T15:23:07;67.28;;;11.18;;
1308;SDS011;647;48.840;9.314;2023-01-19T15:25:35;71.00;;;14.30;;
1308;SDS011;647;48.840;9.314;2023-01-19T15:28:07;82.25;;;18.77;;
1308;SDS011;647;48.840;9.314;2023-01-19T15:30:35;73.43;;;14.00;;
1308;SDS011;647;48.840;9.314;2023-01-19T15:33:04;71.88;;;12.60;;
1308;SDS011;647;48.840;9.314;2023-01-19T15:35:31;71.45;;;13.23;;
1308;SDS011;647;48.840;9.314;2023-01-19T15:37:58;67.32;;;10.70;;